sensor_id;sensor_type;location;lat;lon;timestamp;pressure;altitude;pressure_sealevel;temperature;humidity
54042;BME280;41156;51.508;5.406;2022-12-18T00:01:47;102721.78;;;-6.05;100.00
54042;BME280;41156;51.508;5.406;2022-12-18T00:04:48;102722.78;;;-6.07;100.00
54042;BME280;41156;51.508;5.406;2022-12-18T00:07:48;102719.44;;;-6.11;100.00
54042;BME280;41156;51.508;5.406;2022-12-18T00:10:49;102730.00;;;-6.12;100.00
54042;BME280;41156;51.508;5.406;2022-12-18T00:13:52;102727.56;;;-6.17;100.00
54042;BME280;41156;51.508;5.406;2022-12-18T00:16:53;102724.97;;;-6.19;100.00
54042;BME280;41156;51.508;5.406;2022-12-18T00:19:53;102726.94;;;-6.24;100.00
54042;BME280;41156;51.508;5.406;2022-12-18T00:22:54;102721.84;;;-6.28;100.00
54042;BME280;41156;51.508;5.406;2022-12-18T00:25:59;102706.22;;;-6.33;100.00
54042;BME280;41156;51.508;5.406;2022-12-18T00:29:01;102695.97;;;-6.39;100.00
54042;BME280;41156;51.508;5.406;2022-12-18T00:32:02;102681.97;;;-6.41;100.00
54042;BME280;41156;51.508;5.406;2022-12-18T00:35:03;102675.88;;;-6.42;100.00
54042;BME280;41156;51.508;5.406;2022-12-18T00:38:04;102677.72;;;-6.44;100.00
54042;BME280;41156;51.508;5.406;2022-12-18T00:41:07;102679.56;;;-6.46;100.00
54042;BME280;41156;51.508;5.406;2022-12-18T00:44:10;102674.41;;;-6.49;100.00
54042;BME280;41156;51.508;5.406;2022-12-18T00:47:11;102678.78;;;-6.49;100.00
54042;BME280;41156;51.508;5.406;2022-12-18T00:50:12;102674.47;;;-6.51;100.00
54042;BME280;41156;51.508;5.406;2022-12-18T00:53:12;102685.94;;;-6.53;100.00
54042;BME280;41156;51.508;5.406;2022-12-18T00:56:13;102675.38;;;-6.52;100.00
54042;BME280;41156;51.508;5.406;2022-12-18T00:59:13;102675.38;;;-6.52;100.00
54042;BME280;41156;51.508;5.406;2022-12-18T01:02:13;102681.63;;;-6.54;100.00
54042;BME280;41156;51.508;5.406;2022-12-18T01:05:14;102685.28;;;-6.58;100.00
54042;BME280;41156;51.508;5.406;2022-12-18T01:08:14;102679.31;;;-6.63;100.00
54042;BME280;41156;51.508;5.406;2022-12-18T01:11:17;102691.63;;;-6.64;100.00
54042;BME280;41156;51.508;5.406;2022-12-18T01:14:18;102703.00;;;-6.63;100.00
54042;BME280;41156;51.508;5.406;2022-12-18T01:17:18;102703.00;;;-6.63;100.00
54042;BME280;41156;51.508;5.406;2022-12-18T01:20:19;102705.56;;;-6.62;100.00
54042;BME280;41156;51.508;5.406;2022-12-18T01:23:19;102699.47;;;-6.62;100.00
54042;BME280;41156;51.508;5.406;2022-12-18T01:26:23;102707.41;;;-6.64;100.00
54042;BME280;41156;51.508;5.406;2022-12-18T01:29:24;102701.28;;;-6.64;100.00
54042;BME280;41156;51.508;5.406;2022-12-18T01:32:24;102700.47;;;-6.66;100.00
54042;BME280;41156;51.508;5.406;2022-12-18T01:35:24;102698.78;;;-6.67;100.00
54042;BME280;41156;51.508;5.406;2022-12-18T01:38:25;102687.38;;;-6.68;100.00
54042;BME280;41156;51.508;5.406;2022-12-18T01:41:28;102689.16;;;-6.68;100.00
54042;BME280;41156;51.508;5.406;2022-12-18T01:45:03;102695.38;;;-6.71;100.00
54042;BME280;41156;51.508;5.406;2022-12-18T01:48:07;102695.31;;;-6.70;100.00
54042;BME280;41156;51.508;5.406;2022-12-18T01:51:10;102695.38;;;-6.71;100.00
54042;BME280;41156;51.508;5.406;2022-12-18T01:54:11;102694.59;;;-6.73;100.00
54042;BME280;41156;51.508;5.406;2022-12-18T01:57:11;102692.84;;;-6.73;100.00
54042;BME280;41156;51.508;5.406;2022-12-18T02:00:15;102692.06;;;-6.76;100.00
54042;BME280;41156;51.508;5.406;2022-12-18T02:03:16;102683.38;;;-6.78;100.00
54042;BME280;41156;51.508;5.406;2022-12-18T02:06:30;102682.59;;;-6.80;100.00
54042;BME280;41156;51.508;5.406;2022-12-18T02:09:50;102679.13;;;-6.81;100.00
54042;BME280;41156;51.508;5.406;2022-12-18T02:13:19;102673.97;;;-6.84;100.00
54042;BME280;41156;51.508;5.406;2022-12-18T02:19:44;102681.16;;;-6.89;100.00
54042;BME280;41156;51.508;5.406;2022-12-18T02:26:22;102683.13;;;-6.94;100.00
54042;BME280;41156;51.508;5.406;2022-12-18T02:29:26;102677.91;;;-6.96;100.00
54042;BME280;41156;51.508;5.406;2022-12-18T02:32:35;102681.38;;;-6.95;100.00
54042;BME280;41156;51.508;5.406;2022-12-18T02:35:40;102677.16;;;-6.99;100.00
54042;BME280;41156;51.508;5.406;2022-12-18T02:38:42;102677.22;;;-7.01;100.00
54042;BME280;41156;51.508;5.406;2022-12-18T02:41:44;102675.50;;;-7.02;100.00
54042;BME280;41156;51.508;5.406;2022-12-18T02:44:46;102669.50;;;-7.05;100.00
54042;BME280;41156;51.508;5.406;2022-12-18T02:47:49;102667.78;;;-7.07;100.00
54042;BME280;41156;51.508;5.406;2022-12-18T02:51:11;102653.72;;;-7.05;100.00
54042;BME280;41156;51.508;5.406;2022-12-18T02:57:53;102649.44;;;-7.08;100.00
54042;BME280;41156;51.508;5.406;2022-12-18T03:07:19;102651.22;;;-7.09;100.00
54042;BME280;41156;51.508;5.406;2022-12-18T03:10:28;102638.06;;;-7.09;100.00
54042;BME280;41156;51.508;5.406;2022-12-18T03:13:41;102638.97;;;-7.10;100.00
54042;BME280;41156;51.508;5.406;2022-12-18T03:16:44;102635.50;;;-7.10;100.00
54042;BME280;41156;51.508;5.406;2022-12-18T03:19:47;102631.97;;;-7.09;100.00
54042;BME280;41156;51.508;5.406;2022-12-18T03:22:53;102637.16;;;-7.08;100.00
54042;BME280;41156;51.508;5.406;2022-12-18T03:25:56;102633.72;;;-7.10;100.00
54042;BME280;41156;51.508;5.406;2022-12-18T03:29:02;102633.72;;;-7.10;100.00
54042;BME280;41156;51.508;5.406;2022-12-18T03:32:12;102641.59;;;-7.10;100.00
54042;BME280;41156;51.508;5.406;2022-12-18T03:35:19;102642.47;;;-7.09;100.00
54042;BME280;41156;51.508;5.406;2022-12-18T03:38:21;102646.84;;;-7.10;100.00
54042;BME280;41156;51.508;5.406;2022-12-18T03:44:32;102637.34;;;-7.12;100.00
54042;BME280;41156;51.508;5.406;2022-12-18T03:47:41;102633.91;;;-7.14;100.00
54042;BME280;41156;51.508;5.406;2022-12-18T03:54:11;102621.72;;;-7.17;100.00
54042;BME280;41156;51.508;5.406;2022-12-18T03:57:18;102613.84;;;-7.17;100.00
54042;BME280;41156;51.508;5.406;2022-12-18T04:00:19;102607.78;;;-7.19;100.00
54042;BME280;41156;51.508;5.406;2022-12-18T04:03:20;102600.81;;;-7.20;100.00
54042;BME280;41156;51.508;5.406;2022-12-18T04:06:22;102593.00;;;-7.21;100.00
54042;BME280;41156;51.508;5.406;2022-12-18T04:09:23;102594.78;;;-7.22;100.00
54042;BME280;41156;51.508;5.406;2022-12-18T04:12:25;102587.06;;;-7.27;100.00
54042;BME280;41156;51.508;5.406;2022-12-18T04:15:28;102588.84;;;-7.27;100.00
54042;BME280;41156;51.508;5.406;2022-12-18T04:18:29;102580.84;;;-7.24;100.00
54042;BME280;41156;51.508;5.406;2022-12-18T04:21:29;102566.78;;;-7.23;100.00
54042;BME280;41156;51.508;5.406;2022-12-18T04:24:29;102568.50;;;-7.22;100.00
54042;BME280;41156;51.508;5.406;2022-12-18T04:27:30;102574.53;;;-7.20;100.00
54042;BME280;41156;51.508;5.406;2022-12-18T04:30:30;102584.22;;;-7.20;100.00
54042;BME280;41156;51.508;5.406;2022-12-18T04:33:30;102586.00;;;-7.21;100.00
54042;BME280;41156;51.508;5.406;2022-12-18T04:36:31;102599.22;;;-7.24;100.00
54042;BME280;41156;51.508;5.406;2022-12-18T04:39:31;102597.56;;;-7.27;100.00
54042;BME280;41156;51.508;5.406;2022-12-18T04:42:31;102599.41;;;-7.29;100.00
54042;BME280;41156;51.508;5.406;2022-12-18T04:45:32;102595.09;;;-7.31;100.00
54042;BME280;41156;51.508;5.406;2022-12-18T04:48:32;102611.84;;;-7.34;100.00
54042;BME280;41156;51.508;5.406;2022-12-18T04:51:33;102619.78;;;-7.35;100.00
54042;BME280;41156;51.508;5.406;2022-12-18T04:54:33;102625.13;;;-7.38;100.00
54042;BME280;41156;51.508;5.406;2022-12-18T04:57:33;102625.22;;;-7.41;100.00
54042;BME280;41156;51.508;5.406;2022-12-18T05:00:34;102623.53;;;-7.42;100.00
54042;BME280;41156;51.508;5.406;2022-12-18T05:03:35;102620.13;;;-7.46;100.00
54042;BME280;41156;51.508;5.406;2022-12-18T05:06:35;102617.56;;;-7.48;100.00
54042;BME280;41156;51.508;5.406;2022-12-18T05:09:36;102615.91;;;-7.50;100.00
54042;BME280;41156;51.508;5.406;2022-12-18T05:12:36;102630.00;;;-7.53;100.00
54042;BME280;41156;51.508;5.406;2022-12-18T05:15:57;102638.75;;;-7.52;100.00
54042;BME280;41156;51.508;5.406;2022-12-18T05:18:58;102624.75;;;-7.53;100.00
54042;BME280;41156;51.508;5.406;2022-12-18T05:21:58;102619.38;;;-7.50;100.00
54042;BME280;41156;51.508;5.406;2022-12-18T05:24:58;102621.91;;;-7.47;100.00
54042;BME280;41156;51.508;5.406;2022-12-18T05:27:59;102620.97;;;-7.44;100.00
54042;BME280;41156;51.508;5.406;2022-12-18T05:31:00;102614.81;;;-7.45;100.00
54042;BME280;41156;51.508;5.406;2022-12-18T05:34:02;102619.22;;;-7.45;100.00
54042;BME280;41156;51.508;5.406;2022-12-18T05:37:02;102619.22;;;-7.45;100.00
54042;BME280;41156;51.508;5.406;2022-12-18T05:40:03;102610.47;;;-7.44;100.00
54042;BME280;41156;51.508;5.406;2022-12-18T05:43:05;102606.94;;;-7.45;100.00
54042;BME280;41156;51.508;5.406;2022-12-18T05:46:07;102607.00;;;-7.46;100.00
54042;BME280;41156;51.508;5.406;2022-12-18T05:49:08;102600.06;;;-7.47;100.00
54042;BME280;41156;51.508;5.406;2022-12-18T05:52:09;102602.69;;;-7.47;100.00
54042;BME280;41156;51.508;5.406;2022-12-18T05:55:09;102600.09;;;-7.49;100.00
54042;BME280;41156;51.508;5.406;2022-12-18T05:58:10;102601.94;;;-7.51;100.00
54042;BME280;41156;51.508;5.406;2022-12-18T06:01:12;102591.50;;;-7.52;100.00
54042;BME280;41156;51.508;5.406;2022-12-18T06:04:13;102597.63;;;-7.53;100.00
54042;BME280;41156;51.508;5.406;2022-12-18T06:07:13;102593.28;;;-7.54;100.00
54042;BME280;41156;51.508;5.406;2022-12-18T06:10:13;102587.19;;;-7.55;100.00
54042;BME280;41156;51.508;5.406;2022-12-18T06:13:13;102586.50;;;-7.60;100.00
54042;BME280;41156;51.508;5.406;2022-12-18T06:16:14;102598.81;;;-7.62;100.00
54042;BME280;41156;51.508;5.406;2022-12-18T06:19:15;102603.22;;;-7.63;100.00
54042;BME280;41156;51.508;5.406;2022-12-18T06:22:16;102606.72;;;-7.62;100.00
54042;BME280;41156;51.508;5.406;2022-12-18T06:25:16;102594.47;;;-7.63;100.00
54042;BME280;41156;51.508;5.406;2022-12-18T06:28:17;102598.13;;;-7.67;100.00
54042;BME280;41156;51.508;5.406;2022-12-18T06:31:17;102599.13;;;-7.71;100.00
54042;BME280;41156;51.508;5.406;2022-12-18T06:34:18;102602.78;;;-7.75;100.00
54042;BME280;41156;51.508;5.406;2022-12-18T06:37:18;102598.53;;;-7.79;100.00
54042;BME280;41156;51.508;5.406;2022-12-18T06:40:19;102600.41;;;-7.83;100.00
54042;BME280;41156;51.508;5.406;2022-12-18T06:43:19;102590.03;;;-7.86;100.00
54042;BME280;41156;51.508;5.406;2022-12-18T06:46:20;102581.34;;;-7.88;100.00
54042;BME280;41156;51.508;5.406;2022-12-18T06:49:20;102582.19;;;-7.88;100.00
54042;BME280;41156;51.508;5.406;2022-12-18T06:52:20;102582.19;;;-7.88;100.00
54042;BME280;41156;51.508;5.406;2022-12-18T06:55:20;102576.06;;;-7.87;100.00
54042;BME280;41156;51.508;5.406;2022-12-18T06:58:21;102578.63;;;-7.85;100.00
54042;BME280;41156;51.508;5.406;2022-12-18T07:01:21;102576.75;;;-7.82;100.00
54042;BME280;41156;51.508;5.406;2022-12-18T07:04:27;102578.47;;;-7.81;100.00
54042;BME280;41156;51.508;5.406;2022-12-18T07:07:27;102579.28;;;-7.78;100.00
54042;BME280;41156;51.508;5.406;2022-12-18T07:10:28;102570.50;;;-7.77;100.00
54042;BME280;41156;51.508;5.406;2022-12-18T07:13:28;102559.06;;;-7.76;100.00
54042;BME280;41156;51.508;5.406;2022-12-18T07:16:28;102552.88;;;-7.74;100.00
54042;BME280;41156;51.508;5.406;2022-12-18T07:19:29;102546.69;;;-7.73;100.00
54042;BME280;41156;51.508;5.406;2022-12-18T07:22:29;102535.28;;;-7.72;100.00
54042;BME280;41156;51.508;5.406;2022-12-18T07:25:33;102523.00;;;-7.71;100.00
54042;BME280;41156;51.508;5.406;2022-12-18T07:28:34;102519.47;;;-7.70;100.00
54042;BME280;41156;51.508;5.406;2022-12-18T07:31:35;102517.66;;;-7.68;100.00
54042;BME280;41156;51.508;5.406;2022-12-18T07:34:35;102515.78;;;-7.65;100.00
54042;BME280;41156;51.508;5.406;2022-12-18T07:37:36;102517.34;;;-7.59;100.00
54042;BME280;41156;51.508;5.406;2022-12-18T07:40:36;102509.16;;;-7.51;100.00
54042;BME280;41156;51.508;5.406;2022-12-18T07:43:37;102508.09;;;-7.46;100.00
54042;BME280;41156;51.508;5.406;2022-12-18T07:46:38;102507.09;;;-7.43;100.00
54042;BME280;41156;51.508;5.406;2022-12-18T07:49:39;102490.28;;;-7.37;100.00
54042;BME280;41156;51.508;5.406;2022-12-18T07:52:39;102479.56;;;-7.33;100.00
54042;BME280;41156;51.508;5.406;2022-12-18T07:55:40;102484.66;;;-7.28;100.00
54042;BME280;41156;51.508;5.406;2022-12-18T07:58:41;102481.75;;;-7.20;100.00
54042;BME280;41156;51.508;5.406;2022-12-18T08:01:41;102468.38;;;-7.14;100.00
54042;BME280;41156;51.508;5.406;2022-12-18T08:04:41;102479.50;;;-7.08;100.00
54042;BME280;41156;51.508;5.406;2022-12-18T08:07:42;102488.00;;;-7.01;100.00
54042;BME280;41156;51.508;5.406;2022-12-18T08:10:42;102492.09;;;-6.94;100.00
54042;BME280;41156;51.508;5.406;2022-12-18T08:13:42;102492.75;;;-6.89;100.00
54042;BME280;41156;51.508;5.406;2022-12-18T08:16:42;102474.19;;;-6.84;100.00
54042;BME280;41156;51.508;5.406;2022-12-18T08:19:43;102484.44;;;-6.78;100.00
54042;BME280;41156;51.508;5.406;2022-12-18T08:22:44;102486.88;;;-6.73;100.00
54042;BME280;41156;51.508;5.406;2022-12-18T08:25:44;102488.38;;;-6.66;100.00
54042;BME280;41156;51.508;5.406;2022-12-18T08:28:45;102492.50;;;-6.60;100.00
54042;BME280;41156;51.508;5.406;2022-12-18T08:31:45;102485.16;;;-6.52;100.00
54042;BME280;41156;51.508;5.406;2022-12-18T08:34:46;102484.91;;;-6.46;100.00
54042;BME280;41156;51.508;5.406;2022-12-18T08:37:46;102494.25;;;-6.39;100.00
54042;BME280;41156;51.508;5.406;2022-12-18T08:40:46;102493.13;;;-6.33;100.00
54042;BME280;41156;51.508;5.406;2022-12-18T08:43:47;102478.00;;;-6.28;100.00
54042;BME280;41156;51.508;5.406;2022-12-18T08:47:06;102471.63;;;-6.22;100.00
54042;BME280;41156;51.508;5.406;2022-12-18T08:50:08;102457.28;;;-6.15;100.00
54042;BME280;41156;51.508;5.406;2022-12-18T08:53:09;102466.72;;;-6.09;100.00
54042;BME280;41156;51.508;5.406;2022-12-18T08:56:10;102469.94;;;-6.03;100.00
54042;BME280;41156;51.508;5.406;2022-12-18T08:59:10;102468.56;;;-5.92;100.00
54042;BME280;41156;51.508;5.406;2022-12-18T09:02:11;102459.47;;;-5.85;100.00
54042;BME280;41156;51.508;5.406;2022-12-18T09:05:11;102457.34;;;-5.77;100.00
54042;BME280;41156;51.508;5.406;2022-12-18T09:08:11;102457.78;;;-5.67;100.00
54042;BME280;41156;51.508;5.406;2022-12-18T09:11:22;102476.66;;;-5.58;100.00
54042;BME280;41156;51.508;5.406;2022-12-18T09:14:23;102486.91;;;-5.51;100.00
54042;BME280;41156;51.508;5.406;2022-12-18T09:17:24;102481.34;;;-5.45;100.00
54042;BME280;41156;51.508;5.406;2022-12-18T09:20:24;102492.47;;;-5.39;100.00
54042;BME280;41156;51.508;5.406;2022-12-18T09:23:25;102494.81;;;-5.32;100.00
54042;BME280;41156;51.508;5.406;2022-12-18T09:26:26;102498.03;;;-5.26;100.00
54042;BME280;41156;51.508;5.406;2022-12-18T09:29:26;102480.22;;;-5.21;100.00
54042;BME280;41156;51.508;5.406;2022-12-18T09:32:27;102471.97;;;-5.13;100.00
54042;BME280;41156;51.508;5.406;2022-12-18T09:35:27;102466.44;;;-5.08;100.00
54042;BME280;41156;51.508;5.406;2022-12-18T09:38:27;102468.03;;;-5.04;100.00
54042;BME280;41156;51.508;5.406;2022-12-18T09:44:44;102460.34;;;-4.91;100.00
54042;BME280;41156;51.508;5.406;2022-12-18T09:47:48;102461.88;;;-4.86;100.00
54042;BME280;41156;51.508;5.406;2022-12-18T09:50:51;102449.16;;;-4.77;100.00
54042;BME280;41156;51.508;5.406;2022-12-18T09:53:59;102432.00;;;-4.69;100.00
54042;BME280;41156;51.508;5.406;2022-12-18T09:57:01;102421.16;;;-4.62;100.00
54042;BME280;41156;51.508;5.406;2022-12-18T10:00:15;102430.41;;;-4.54;100.00
54042;BME280;41156;51.508;5.406;2022-12-18T10:03:17;102441.34;;;-4.44;100.00
54042;BME280;41156;51.508;5.406;2022-12-18T10:06:35;102441.88;;;-4.37;100.00
54042;BME280;41156;51.508;5.406;2022-12-18T10:10:14;102439.72;;;-4.29;100.00
54042;BME280;41156;51.508;5.406;2022-12-18T10:13:29;102441.00;;;-4.20;100.00
54042;BME280;41156;51.508;5.406;2022-12-18T10:16:52;102439.75;;;-4.13;100.00
54042;BME280;41156;51.508;5.406;2022-12-18T10:20:09;102439.28;;;-4.04;100.00
54042;BME280;41156;51.508;5.406;2022-12-18T10:26:25;102437.31;;;-3.83;100.00
54042;BME280;41156;51.508;5.406;2022-12-18T10:29:26;102423.91;;;-3.80;100.00
54042;BME280;41156;51.508;5.406;2022-12-18T10:32:29;102418.22;;;-3.72;100.00
54042;BME280;41156;51.508;5.406;2022-12-18T10:35:29;102414.22;;;-3.63;100.00
54042;BME280;41156;51.508;5.406;2022-12-18T10:38:31;102401.78;;;-3.61;100.00
54042;BME280;41156;51.508;5.406;2022-12-18T10:41:32;102397.13;;;-3.56;100.00
54042;BME280;41156;51.508;5.406;2022-12-18T10:44:33;102392.25;;;-3.48;100.00
54042;BME280;41156;51.508;5.406;2022-12-18T10:47:33;102384.84;;;-3.41;100.00
54042;BME280;41156;51.508;5.406;2022-12-18T10:50:36;102381.91;;;-3.37;100.00
54042;BME280;41156;51.508;5.406;2022-12-18T10:53:39;102391.13;;;-3.28;100.00
54042;BME280;41156;51.508;5.406;2022-12-18T10:56:41;102377.63;;;-3.23;100.00
54042;BME280;41156;51.508;5.406;2022-12-18T10:59:53;102368.53;;;-3.18;100.00
54042;BME280;41156;51.508;5.406;2022-12-18T11:02:54;102361.09;;;-3.11;100.00
54042;BME280;41156;51.508;5.406;2022-12-18T11:06:22;102356.47;;;-3.07;100.00
54042;BME280;41156;51.508;5.406;2022-12-18T11:09:32;102357.13;;;-3.04;100.00
54042;BME280;41156;51.508;5.406;2022-12-18T11:12:33;102366.78;;;-3.03;100.00
54042;BME280;41156;51.508;5.406;2022-12-18T11:15:33;102363.88;;;-2.98;100.00
54042;BME280;41156;51.508;5.406;2022-12-18T11:18:35;102369.75;;;-2.93;100.00
54042;BME280;41156;51.508;5.406;2022-12-18T11:21:39;102363.06;;;-2.84;100.00
54042;BME280;41156;51.508;5.406;2022-12-18T11:24:41;102348.69;;;-2.80;100.00
54042;BME280;41156;51.508;5.406;2022-12-18T11:27:48;102336.94;;;-2.74;100.00
54042;BME280;41156;51.508;5.406;2022-12-18T11:34:12;102333.81;;;-2.67;100.00
54042;BME280;41156;51.508;5.406;2022-12-18T11:37:16;102340.34;;;-2.58;100.00
54042;BME280;41156;51.508;5.406;2022-12-18T11:40:23;102339.97;;;-2.52;100.00
54042;BME280;41156;51.508;5.406;2022-12-18T11:43:31;102331.66;;;-2.46;100.00
54042;BME280;41156;51.508;5.406;2022-12-18T11:46:45;102334.03;;;-2.41;100.00
54042;BME280;41156;51.508;5.406;2022-12-18T11:49:49;102331.31;;;-2.39;100.00
54042;BME280;41156;51.508;5.406;2022-12-18T11:52:50;102331.00;;;-2.35;100.00
54042;BME280;41156;51.508;5.406;2022-12-18T11:59:39;102322.50;;;-2.26;100.00
54042;BME280;41156;51.508;5.406;2022-12-18T12:06:26;102314.28;;;-2.21;100.00
54042;BME280;41156;51.508;5.406;2022-12-18T12:19:25;102292.72;;;-2.15;100.00
54042;BME280;41156;51.508;5.406;2022-12-18T12:22:56;102286.44;;;-2.14;100.00
54042;BME280;41156;51.508;5.406;2022-12-18T12:26:03;102286.06;;;-2.08;100.00
54042;BME280;41156;51.508;5.406;2022-12-18T12:32:45;102260.13;;;-2.02;100.00
54042;BME280;41156;51.508;5.406;2022-12-18T12:36:00;102257.22;;;-1.98;100.00
54042;BME280;41156;51.508;5.406;2022-12-18T12:39:11;102256.25;;;-1.97;100.00
54042;BME280;41156;51.508;5.406;2022-12-18T12:42:29;102256.03;;;-1.94;100.00
54042;BME280;41156;51.508;5.406;2022-12-18T12:45:54;102246.19;;;-1.92;100.00
54042;BME280;41156;51.508;5.406;2022-12-18T12:49:01;102235.59;;;-1.92;100.00
54042;BME280;41156;51.508;5.406;2022-12-18T12:52:12;102233.50;;;-1.87;100.00
54042;BME280;41156;51.508;5.406;2022-12-18T12:55:19;102235.09;;;-1.84;100.00
54042;BME280;41156;51.508;5.406;2022-12-18T12:58:31;102229.50;;;-1.79;100.00
54042;BME280;41156;51.508;5.406;2022-12-18T13:04:57;102229.31;;;-1.76;100.00
54042;BME280;41156;51.508;5.406;2022-12-18T13:08:03;102220.50;;;-1.77;100.00
54042;BME280;41156;51.508;5.406;2022-12-18T13:11:27;102211.59;;;-1.76;100.00
54042;BME280;41156;51.508;5.406;2022-12-18T13:14:48;102199.19;;;-1.75;99.88
54042;BME280;41156;51.508;5.406;2022-12-18T13:17:48;102200.28;;;-1.78;100.00
54042;BME280;41156;51.508;5.406;2022-12-18T13:21:04;102201.75;;;-1.74;100.00
54042;BME280;41156;51.508;5.406;2022-12-18T13:24:35;102206.13;;;-1.73;99.75
54042;BME280;41156;51.508;5.406;2022-12-18T13:30:49;102203.47;;;-1.73;100.00
54042;BME280;41156;51.508;5.406;2022-12-18T13:33:49;102212.16;;;-1.71;100.00
54042;BME280;41156;51.508;5.406;2022-12-18T13:36:51;102208.47;;;-1.68;100.00
54042;BME280;41156;51.508;5.406;2022-12-18T13:39:51;102204.94;;;-1.69;99.63
54042;BME280;41156;51.508;5.406;2022-12-18T13:42:52;102206.56;;;-1.66;100.00
54042;BME280;41156;51.508;5.406;2022-12-18T13:49:43;102185.25;;;-1.64;98.91
54042;BME280;41156;51.508;5.406;2022-12-18T13:52:44;102176.31;;;-1.63;100.00
54042;BME280;41156;51.508;5.406;2022-12-18T13:55:45;102174.44;;;-1.61;100.00
54042;BME280;41156;51.508;5.406;2022-12-18T13:58:45;102174.22;;;-1.58;100.00
54042;BME280;41156;51.508;5.406;2022-12-18T14:01:57;102173.38;;;-1.59;100.00
54042;BME280;41156;51.508;5.406;2022-12-18T14:04:57;102181.22;;;-1.57;100.00
54042;BME280;41156;51.508;5.406;2022-12-18T14:08:05;102173.19;;;-1.56;100.00
54042;BME280;41156;51.508;5.406;2022-12-18T14:11:07;102162.47;;;-1.54;100.00
54042;BME280;41156;51.508;5.406;2022-12-18T14:14:14;102170.44;;;-1.54;100.00
54042;BME280;41156;51.508;5.406;2022-12-18T14:17:15;102168.63;;;-1.54;100.00
54042;BME280;41156;51.508;5.406;2022-12-18T14:20:17;102177.53;;;-1.55;99.89
54042;BME280;41156;51.508;5.406;2022-12-18T14:23:36;102173.91;;;-1.54;99.08
54042;BME280;41156;51.508;5.406;2022-12-18T14:26:36;102162.38;;;-1.53;100.00
54042;BME280;41156;51.508;5.406;2022-12-18T14:29:42;102155.25;;;-1.52;100.00
54042;BME280;41156;51.508;5.406;2022-12-18T14:32:43;102152.50;;;-1.51;99.47
54042;BME280;41156;51.508;5.406;2022-12-18T14:35:58;102158.75;;;-1.52;100.00
54042;BME280;41156;51.508;5.406;2022-12-18T14:39:00;102171.91;;;-1.50;98.77
54042;BME280;41156;51.508;5.406;2022-12-18T14:42:00;102165.75;;;-1.51;100.00
54042;BME280;41156;51.508;5.406;2022-12-18T14:48:40;102154.41;;;-1.53;100.00
54042;BME280;41156;51.508;5.406;2022-12-18T14:51:47;102158.75;;;-1.52;98.83
54042;BME280;41156;51.508;5.406;2022-12-18T14:54:48;102162.16;;;-1.50;98.35
54042;BME280;41156;51.508;5.406;2022-12-18T14:57:53;102167.47;;;-1.50;100.00
54042;BME280;41156;51.508;5.406;2022-12-18T15:00:54;102171.81;;;-1.49;100.00
54042;BME280;41156;51.508;5.406;2022-12-18T15:03:56;102167.47;;;-1.50;100.00
54042;BME280;41156;51.508;5.406;2022-12-18T15:10:24;102156.22;;;-1.53;98.38
54042;BME280;41156;51.508;5.406;2022-12-18T15:13:25;102155.25;;;-1.52;100.00
54042;BME280;41156;51.508;5.406;2022-12-18T15:16:26;102146.47;;;-1.53;100.00
54042;BME280;41156;51.508;5.406;2022-12-18T15:19:40;102138.50;;;-1.53;99.09
54042;BME280;41156;51.508;5.406;2022-12-18T15:22:41;102132.38;;;-1.53;99.50
54042;BME280;41156;51.508;5.406;2022-12-18T15:25:41;102133.22;;;-1.53;100.00
54042;BME280;41156;51.508;5.406;2022-12-18T15:28:57;102137.78;;;-1.55;99.74
54042;BME280;41156;51.508;5.406;2022-12-18T15:32:05;102138.63;;;-1.54;100.00
54042;BME280;41156;51.508;5.406;2022-12-18T15:35:21;102124.53;;;-1.55;100.00
54042;BME280;41156;51.508;5.406;2022-12-18T15:38:21;102128.00;;;-1.54;100.00
54042;BME280;41156;51.508;5.406;2022-12-18T15:41:22;102114.84;;;-1.56;100.00
54042;BME280;41156;51.508;5.406;2022-12-18T15:44:24;102121.00;;;-1.55;100.00
54042;BME280;41156;51.508;5.406;2022-12-18T15:47:25;102121.78;;;-1.53;100.00
54042;BME280;41156;51.508;5.406;2022-12-18T15:50:25;102117.31;;;-1.53;100.00
54042;BME280;41156;51.508;5.406;2022-12-18T15:53:30;102111.16;;;-1.53;100.00
54042;BME280;41156;51.508;5.406;2022-12-18T15:56:35;102102.13;;;-1.51;100.00
54042;BME280;41156;51.508;5.406;2022-12-18T15:59:55;102105.72;;;-1.52;100.00
54042;BME280;41156;51.508;5.406;2022-12-18T16:02:58;102105.63;;;-1.50;100.00
54042;BME280;41156;51.508;5.406;2022-12-18T16:05:58;102118.03;;;-1.51;96.75
54042;BME280;41156;51.508;5.406;2022-12-18T16:09:00;102110.81;;;-1.49;100.00
54042;BME280;41156;51.508;5.406;2022-12-18T16:12:00;102108.94;;;-1.46;100.00
54042;BME280;41156;51.508;5.406;2022-12-18T16:15:01;102102.75;;;-1.47;100.00
54042;BME280;41156;51.508;5.406;2022-12-18T16:18:04;102100.00;;;-1.45;100.00
54042;BME280;41156;51.508;5.406;2022-12-18T16:21:04;102080.50;;;-1.44;100.00
54042;BME280;41156;51.508;5.406;2022-12-18T16:24:05;102080.63;;;-1.46;100.00
54042;BME280;41156;51.508;5.406;2022-12-18T16:27:05;102061.22;;;-1.46;98.39
54042;BME280;41156;51.508;5.406;2022-12-18T16:30:06;102053.13;;;-1.45;100.00
54042;BME280;41156;51.508;5.406;2022-12-18T16:33:08;102070.75;;;-1.44;99.53
54042;BME280;41156;51.508;5.406;2022-12-18T16:36:10;102069.91;;;-1.44;100.00
54042;BME280;41156;51.508;5.406;2022-12-18T16:39:10;102057.38;;;-1.42;100.00
54042;BME280;41156;51.508;5.406;2022-12-18T16:42:15;102058.22;;;-1.42;98.00
54042;BME280;41156;51.508;5.406;2022-12-18T16:45:17;102048.38;;;-1.40;99.98
54042;BME280;41156;51.508;5.406;2022-12-18T16:48:17;102056.19;;;-1.38;100.00
54042;BME280;41156;51.508;5.406;2022-12-18T16:51:17;102043.72;;;-1.36;100.00
54042;BME280;41156;51.508;5.406;2022-12-18T16:54:18;102031.28;;;-1.36;100.00
54042;BME280;41156;51.508;5.406;2022-12-18T16:57:20;102037.44;;;-1.35;99.50
54042;BME280;41156;51.508;5.406;2022-12-18T17:00:21;102024.16;;;-1.35;98.81